createdAt,value
2023-04-22T00:00:33.174Z,2445.00
2023-04-22T00:01:33.178Z,2486.00
2023-04-22T00:02:33.459Z,2454.00
2023-04-22T00:03:33.455Z,2442.00
2023-04-22T00:04:33.452Z,2436.00
2023-04-22T00:05:33.480Z,2413.00
2023-04-22T00:06:33.429Z,2423.00
2023-04-22T00:07:33.505Z,2422.00
2023-04-22T00:08:33.519Z,2410.00
2023-04-22T00:09:33.612Z,2422.00
2023-04-22T00:10:33.607Z,2437.00
2023-04-22T00:11:33.668Z,2432.00
2023-04-22T00:12:33.711Z,2409.00
2023-04-22T00:13:33.755Z,2419.00
2023-04-22T00:14:33.789Z,2421.00
2023-04-22T00:15:33.844Z,2429.00
2023-04-22T00:16:33.948Z,2410.00
2023-04-22T00:17:33.952Z,2408.00
2023-04-22T00:18:33.999Z,2397.00
2023-04-22T00:19:34.028Z,2404.00
2023-04-22T00:20:34.077Z,2412.00
2023-04-22T00:21:34.119Z,2405.00
2023-04-22T00:22:34.154Z,2400.00
2023-04-22T00:23:34.212Z,2391.00
2023-04-22T00:24:34.262Z,2399.00
2023-04-22T00:25:34.280Z,2387.00
2023-04-22T00:26:34.334Z,2371.00
2023-04-22T00:27:34.365Z,2378.00
2023-04-22T00:28:34.419Z,2384.00
2023-04-22T00:29:34.452Z,2390.00
2023-04-22T00:30:34.481Z,2372.00
2023-04-22T00:31:34.571Z,2388.00
2023-04-22T00:32:34.710Z,2355.00
2023-04-22T00:33:34.610Z,2379.00
2023-04-22T00:34:34.638Z,2352.00
2023-04-22T00:35:34.656Z,2381.00
2023-04-22T00:36:34.704Z,2358.00
2023-04-22T00:37:34.734Z,2371.00
2023-04-22T00:38:34.772Z,2361.00
2023-04-22T00:39:34.816Z,2349.00
2023-04-22T00:40:34.860Z,2366.00
2023-04-22T00:41:34.989Z,2321.00
2023-04-22T00:42:35.111Z,2354.00
2023-04-22T00:43:35.220Z,2370.00
2023-04-22T00:44:35.038Z,2361.00
2023-04-22T00:45:35.061Z,2349.00
2023-04-22T00:46:35.169Z,2333.00
2023-04-22T00:47:35.225Z,2326.00
2023-04-22T00:48:35.178Z,2332.00
2023-04-22T00:49:35.206Z,2364.00
2023-04-22T00:50:35.286Z,2341.00
2023-04-22T00:51:35.372Z,2377.00
2023-04-22T00:52:35.410Z,2361.00
2023-04-22T00:53:35.437Z,2348.00
2023-04-22T00:54:35.473Z,2372.00
2023-04-22T00:55:35.509Z,2354.00
2023-04-22T00:56:35.546Z,2365.00
2023-04-22T00:57:35.624Z,2360.00
2023-04-22T00:58:35.656Z,2341.00
2023-04-22T00:59:35.717Z,2348.00
2023-04-22T01:00:35.807Z,2378.00
2023-04-22T01:01:35.840Z,2360.00
2023-04-22T01:02:35.988Z,2348.00
2023-04-22T01:03:36.003Z,2335.00
2023-04-22T01:04:35.901Z,2318.00
2023-04-22T01:05:35.930Z,2331.00
2023-04-22T01:06:35.968Z,2338.00
2023-04-22T01:07:36.002Z,2372.00
2023-04-22T01:08:36.065Z,2357.00
2023-04-22T01:09:36.076Z,2329.00
2023-04-22T01:10:36.140Z,2353.00
2023-04-22T01:11:36.153Z,2343.00
2023-04-22T01:12:36.223Z,2348.00
2023-04-22T01:13:36.259Z,2339.00
2023-04-22T01:14:36.293Z,2336.00
2023-04-22T01:15:36.452Z,2357.00
2023-04-22T01:16:36.416Z,2324.00
2023-04-22T01:17:36.470Z,2340.00
2023-04-22T01:18:36.492Z,2359.00
2023-04-22T01:19:36.600Z,2330.00
2023-04-22T01:20:36.582Z,2340.00
2023-04-22T01:21:36.649Z,2352.00
2023-04-22T01:22:36.686Z,2348.00
2023-04-22T01:23:36.714Z,2352.00
2023-04-22T01:24:36.776Z,2339.00
2023-04-22T01:25:36.821Z,2327.00
2023-04-22T01:26:36.934Z,2304.00
2023-04-22T01:27:36.917Z,2328.00
2023-04-22T01:28:36.967Z,2335.00
2023-04-22T01:29:37.235Z,2337.00
2023-04-22T01:30:37.048Z,2331.00
2023-04-22T01:31:37.153Z,2312.00
2023-04-22T01:32:37.251Z,2329.00
2023-04-22T01:33:37.211Z,2330.00
2023-04-22T01:34:37.267Z,2342.00
2023-04-22T01:35:37.416Z,2356.00
2023-04-22T01:36:37.371Z,2328.00
2023-04-22T01:37:37.394Z,2316.00
2023-04-22T01:38:37.429Z,2289.00
2023-04-22T01:39:37.662Z,2317.00
2023-04-22T01:40:37.535Z,2309.00
2023-04-22T01:41:37.570Z,2312.00
2023-04-22T01:42:37.619Z,2330.00
2023-04-22T01:43:37.686Z,2316.00
2023-04-22T01:44:37.698Z,2340.00
2023-04-22T01:45:37.804Z,2327.00
2023-04-22T01:46:37.999Z,2326.00
2023-04-22T01:47:37.889Z,2312.00
2023-04-22T01:48:37.881Z,2311.00
2023-04-22T01:49:38.254Z,2297.00
2023-04-22T01:50:37.967Z,2313.00
2023-04-22T01:51:37.988Z,2294.00
2023-04-22T01:52:38.015Z,2310.00
2023-04-22T01:53:38.114Z,2318.00
2023-04-22T01:54:38.134Z,2302.00
2023-04-22T01:55:38.182Z,2270.00
2023-04-22T01:56:38.217Z,2299.00
2023-04-22T01:57:38.274Z,2277.00
2023-04-22T01:58:38.301Z,2274.00
2023-04-22T01:59:38.545Z,2296.00
2023-04-22T02:00:38.386Z,2284.00
2023-04-22T02:01:38.507Z,2290.00
2023-04-22T02:02:38.644Z,2310.00
2023-04-22T02:03:38.591Z,2282.00
2023-04-22T02:04:38.639Z,2280.00
2023-04-22T02:05:38.664Z,2286.00
2023-04-22T02:06:38.693Z,2306.00
2023-04-22T02:07:38.715Z,2289.00
2023-04-22T02:08:38.779Z,2269.00
2023-04-22T02:09:38.978Z,2254.00
2023-04-22T02:10:38.871Z,2272.00
2023-04-22T02:11:38.916Z,2248.00
2023-04-22T02:12:38.937Z,2258.00
2023-04-22T02:13:39.012Z,2264.00
2023-04-22T02:14:39.035Z,2237.00
2023-04-22T02:15:39.133Z,2268.00
2023-04-22T02:16:39.157Z,2272.00
2023-04-22T02:17:39.139Z,2264.00
2023-04-22T02:18:39.304Z,2246.00
2023-04-22T02:19:39.605Z,2256.00
2023-04-22T02:20:39.290Z,2240.00
2023-04-22T02:21:39.313Z,2264.00
2023-04-22T02:22:39.356Z,2247.00
2023-04-22T02:23:39.409Z,2255.00
2023-04-22T02:24:39.443Z,2272.00
2023-04-22T02:25:39.535Z,2263.00
2023-04-22T02:26:39.529Z,2258.00
2023-04-22T02:27:39.570Z,2260.00
2023-04-22T02:28:39.689Z,2259.00
2023-04-22T02:29:39.849Z,2253.00
2023-04-22T02:30:39.694Z,2266.00
2023-04-22T02:31:39.769Z,2275.00
2023-04-22T02:32:39.799Z,2261.00
2023-04-22T02:33:39.787Z,2279.00
2023-04-22T02:34:39.840Z,2271.00
2023-04-22T02:35:39.945Z,2275.00
2023-04-22T02:36:39.915Z,2266.00
2023-04-22T02:37:39.959Z,2261.00
2023-04-22T02:38:40.033Z,2257.00
2023-04-22T02:39:40.347Z,2265.00
2023-04-22T02:40:40.104Z,2263.00
2023-04-22T02:41:40.163Z,2267.00
2023-04-22T02:42:40.209Z,2255.00
2023-04-22T02:43:40.236Z,2257.00
2023-04-22T02:44:40.293Z,2258.00
2023-04-22T02:45:40.333Z,2257.00
2023-04-22T02:46:40.421Z,2256.00
2023-04-22T02:47:40.502Z,2254.00
2023-04-22T02:48:40.464Z,2253.00
2023-04-22T02:49:40.816Z,2250.00
2023-04-22T02:50:40.566Z,2252.00
2023-04-22T02:51:40.597Z,2268.00
2023-04-22T02:52:40.622Z,2268.00
2023-04-22T02:53:40.672Z,2247.00
2023-04-22T02:54:40.829Z,2277.00
2023-04-22T02:55:40.793Z,2269.00
2023-04-22T02:56:40.877Z,2240.00
2023-04-22T02:57:40.921Z,2261.00
2023-04-22T02:58:40.984Z,2260.00
2023-04-22T02:59:41.339Z,2283.00
2023-04-22T03:00:41.107Z,2266.00
2023-04-22T03:01:41.119Z,2261.00
2023-04-22T03:02:41.242Z,2248.00
2023-04-22T03:03:41.351Z,2261.00
2023-04-22T03:04:41.280Z,2264.00
2023-04-22T03:05:41.252Z,2251.00
2023-04-22T03:06:41.268Z,2251.00
2023-04-22T03:07:41.308Z,2246.00
2023-04-22T03:08:41.343Z,2274.00
2023-04-22T03:09:41.664Z,2257.00
2023-04-22T03:10:41.433Z,2270.00
2023-04-22T03:11:41.596Z,2304.00
2023-04-22T03:12:41.510Z,2265.00
2023-04-22T03:13:41.537Z,2255.00
2023-04-22T03:14:41.595Z,2267.00
2023-04-22T03:15:41.653Z,2267.00
2023-04-22T03:16:41.743Z,2250.00
2023-04-22T03:17:41.708Z,2245.00
2023-04-22T03:18:41.718Z,2224.00
2023-04-22T03:19:42.134Z,2225.00
2023-04-22T03:20:41.813Z,2250.00
2023-04-22T03:21:41.865Z,2246.00
2023-04-22T03:22:42.008Z,2231.00
2023-04-22T03:23:41.954Z,2238.00
2023-04-22T03:24:41.988Z,2233.00
2023-04-22T03:25:42.002Z,2230.00
2023-04-22T03:26:42.047Z,2248.00
2023-04-22T03:27:42.104Z,2252.00
2023-04-22T03:28:42.119Z,2256.00
2023-04-22T03:29:42.457Z,2246.00
2023-04-22T03:30:42.220Z,2217.00
2023-04-22T03:31:42.432Z,2239.00
2023-04-22T03:32:42.380Z,2239.00
2023-04-22T03:33:42.347Z,2228.00
2023-04-22T03:34:42.379Z,2243.00
2023-04-22T03:35:42.438Z,2233.00
2023-04-22T03:36:42.460Z,2233.00
2023-04-22T03:37:42.518Z,2204.00
2023-04-22T03:38:42.573Z,2223.00
2023-04-22T03:39:42.866Z,2234.00
2023-04-22T03:40:42.837Z,2236.00
2023-04-22T03:41:42.716Z,2229.00
2023-04-22T03:42:42.732Z,2236.00
2023-04-22T03:43:42.787Z,2217.00
2023-04-22T03:44:43.238Z,2203.00
2023-04-22T03:45:42.936Z,2222.00
2023-04-22T03:46:42.924Z,2231.00
2023-04-22T03:47:43.029Z,2224.00
2023-04-22T03:48:43.048Z,2199.00
2023-04-22T03:49:43.158Z,2201.00
2023-04-22T03:50:43.244Z,2197.00
2023-04-22T03:51:43.204Z,2203.00
2023-04-22T03:52:43.258Z,2213.00
2023-04-22T03:53:43.373Z,2220.00
2023-04-22T03:54:43.335Z,2199.00
2023-04-22T03:55:43.408Z,2206.00
2023-04-22T03:56:43.458Z,2202.00
2023-04-22T03:57:43.546Z,2209.00
2023-04-22T03:58:43.500Z,2206.00
2023-04-22T03:59:43.613Z,2193.00
2023-04-22T04:00:43.635Z,2183.00
2023-04-22T04:01:43.630Z,2194.00
2023-04-22T04:02:43.774Z,2163.00
2023-04-22T04:03:43.878Z,2183.00
2023-04-22T04:04:43.907Z,2169.00
2023-04-22T04:05:43.829Z,2165.00
2023-04-22T04:06:43.764Z,2175.00
2023-04-22T04:07:43.797Z,2182.00
2023-04-22T04:08:43.853Z,2191.00
2023-04-22T04:09:43.880Z,2171.00
2023-04-22T04:10:43.965Z,2170.00
2023-04-22T04:11:44.187Z,2176.00
2023-04-22T04:12:44.043Z,2179.00
2023-04-22T04:13:44.092Z,2169.00
2023-04-22T04:14:44.138Z,2180.00
2023-04-22T04:15:44.252Z,2188.00
2023-04-22T04:16:44.279Z,2178.00
2023-04-22T04:17:44.370Z,2173.00
2023-04-22T04:18:44.346Z,2194.00
2023-04-22T04:19:44.422Z,2174.00
2023-04-22T04:20:44.477Z,2181.00
2023-04-22T04:21:44.538Z,2173.00
2023-04-22T04:22:44.592Z,2169.00
2023-04-22T04:23:44.745Z,2169.00
2023-04-22T04:24:44.649Z,2182.00
2023-04-22T04:25:44.719Z,2168.00
2023-04-22T04:26:44.727Z,2194.00
2023-04-22T04:27:44.778Z,2177.00
2023-04-22T04:28:44.849Z,2198.00
2023-04-22T04:29:44.853Z,2183.00
2023-04-22T04:30:44.945Z,2198.00
2023-04-22T04:31:45.043Z,2178.00
2023-04-22T04:32:45.080Z,2187.00
2023-04-22T04:33:45.079Z,2155.00
2023-04-22T04:34:45.094Z,2161.00
2023-04-22T04:35:45.184Z,2172.00
2023-04-22T04:36:45.175Z,2167.00
2023-04-22T04:37:45.215Z,2179.00
2023-04-22T04:38:45.280Z,2177.00
2023-04-22T04:39:45.305Z,2185.00
2023-04-22T04:40:45.386Z,2191.00
2023-04-22T04:41:45.386Z,2170.00
2023-04-22T04:42:45.454Z,2174.00
2023-04-22T04:43:45.511Z,2167.00
2023-04-22T04:44:45.553Z,2162.00
2023-04-22T04:45:48.178Z,2155.00
2023-04-22T04:46:45.613Z,2167.00
2023-04-22T04:47:45.608Z,2166.00
2023-04-22T04:48:45.583Z,2174.00
2023-04-22T04:49:45.557Z,2175.00
2023-04-22T04:50:45.610Z,2172.00
2023-04-22T04:51:45.545Z,2185.00
2023-04-22T04:52:45.552Z,2186.00
2023-04-22T04:53:45.551Z,2175.00
2023-04-22T04:54:45.521Z,2172.00
2023-04-22T04:55:45.543Z,2170.00
2023-04-22T04:56:45.527Z,2157.00
2023-04-22T04:57:45.539Z,2168.00
2023-04-22T04:58:45.561Z,2180.00
2023-04-22T04:59:45.505Z,2183.00
2023-04-22T05:00:45.531Z,2156.00
2023-04-22T05:01:45.555Z,2166.00
2023-04-22T05:02:45.606Z,2138.00
2023-04-22T05:03:45.707Z,2104.00
2023-04-22T05:04:45.673Z,2095.00
2023-04-22T05:05:45.488Z,2105.00
2023-04-22T05:06:45.476Z,2113.00
2023-04-22T05:07:45.483Z,2058.00
2023-04-22T05:08:45.452Z,2051.00
2023-04-22T05:09:45.436Z,2020.00
2023-04-22T05:10:45.474Z,2041.00
2023-04-22T05:11:45.444Z,1987.00
2023-04-22T05:12:45.424Z,2009.00
2023-04-22T05:13:45.402Z,2018.00
2023-04-22T05:14:45.428Z,2046.00
2023-04-22T05:15:45.408Z,2060.00
2023-04-22T05:16:45.401Z,2102.00
2023-04-22T05:17:45.413Z,2151.00
2023-04-22T05:18:45.387Z,2165.00
2023-04-22T05:19:45.359Z,2141.00
2023-04-22T05:20:45.356Z,2136.00
2023-04-22T05:21:45.350Z,2125.00
2023-04-22T05:22:45.358Z,2119.00
2023-04-22T05:23:45.349Z,2123.00
2023-04-22T05:24:45.333Z,2102.00
2023-04-22T05:25:45.363Z,2085.00
2023-04-22T05:26:45.327Z,2066.00
2023-04-22T05:27:45.309Z,2052.00
2023-04-22T05:28:45.308Z,2033.00
2023-04-22T05:29:45.315Z,2030.00
2023-04-22T05:30:45.318Z,1983.00
2023-04-22T05:31:45.344Z,1996.00
2023-04-22T05:32:45.281Z,2005.00
2023-04-22T05:33:45.277Z,2037.00
2023-04-22T05:34:45.268Z,2037.00
2023-04-22T05:35:45.275Z,2081.00
2023-04-22T05:36:45.272Z,2114.00
2023-04-22T05:37:45.265Z,2146.00
2023-04-22T05:38:45.282Z,2145.00
2023-04-22T05:39:45.318Z,2199.00
2023-04-22T05:40:45.401Z,2168.00
2023-04-22T05:41:46.963Z,2194.00
2023-04-22T05:42:45.456Z,2144.00
2023-04-22T05:43:45.467Z,2180.00
2023-04-22T05:44:45.501Z,2169.00
2023-04-22T05:45:45.596Z,2142.00
2023-04-22T05:46:45.563Z,2143.00
2023-04-22T05:47:45.605Z,2132.00
2023-04-22T05:48:45.616Z,2145.00
2023-04-22T05:49:45.659Z,2144.00
2023-04-22T05:50:45.701Z,2146.00
2023-04-22T05:51:45.744Z,2160.00
2023-04-22T05:52:45.776Z,2172.00
2023-04-22T05:53:45.797Z,2212.00
2023-04-22T05:54:45.829Z,2171.00
2023-04-22T05:55:45.852Z,2132.00
2023-04-22T05:56:45.905Z,2128.00
2023-04-22T05:57:45.948Z,2119.00
2023-04-22T05:58:45.996Z,2107.00
2023-04-22T05:59:46.038Z,2089.00
2023-04-22T06:00:46.095Z,2074.00
2023-04-22T06:01:46.140Z,2066.00
2023-04-22T06:02:46.337Z,2045.00
2023-04-22T06:03:46.470Z,2047.00
2023-04-22T06:04:46.429Z,2033.00
2023-04-22T06:05:46.201Z,2015.00
2023-04-22T06:06:46.208Z,2014.00
2023-04-22T06:07:46.242Z,2025.00
2023-04-22T06:08:46.258Z,2027.00
2023-04-22T06:09:46.285Z,2017.00
2023-04-22T06:10:46.301Z,2025.00
2023-04-22T06:11:46.327Z,2044.00
2023-04-22T06:12:46.308Z,2052.00
2023-04-22T06:13:46.338Z,2058.00
2023-04-22T06:14:46.354Z,2080.00
2023-04-22T06:15:46.360Z,2097.00
2023-04-22T06:16:46.358Z,2078.00
2023-04-22T06:17:46.384Z,2089.00
2023-04-22T06:18:46.413Z,2097.00
2023-04-22T06:19:46.467Z,2109.00
2023-04-22T06:20:46.533Z,2113.00
2023-04-22T06:21:46.556Z,2136.00
2023-04-22T06:22:46.593Z,2149.00
2023-04-22T06:23:46.606Z,2162.00
2023-04-22T06:24:48.177Z,2192.00
2023-04-22T06:25:46.671Z,2239.00
2023-04-22T06:26:46.715Z,2254.00
2023-04-22T06:27:46.749Z,2258.00
2023-04-22T06:28:46.764Z,2296.00
2023-04-22T06:29:46.774Z,2307.00
2023-04-22T06:30:46.788Z,2341.00
2023-04-22T06:31:46.912Z,2349.00
2023-04-22T06:32:46.896Z,2377.00
2023-04-22T06:33:46.907Z,2399.00
2023-04-22T06:34:47.000Z,2419.00
2023-04-22T06:35:46.922Z,2420.00
2023-04-22T06:36:46.947Z,2422.00
2023-04-22T06:37:46.974Z,2427.00
2023-04-22T06:38:47.031Z,2403.00
2023-04-22T06:39:47.068Z,2357.00
2023-04-22T06:40:47.117Z,2329.00
2023-04-22T06:41:47.189Z,2315.00
2023-04-22T06:42:47.204Z,2298.00
2023-04-22T06:43:47.227Z,2282.00
2023-04-22T06:44:47.266Z,2294.00
2023-04-22T06:45:47.370Z,2278.00
2023-04-22T06:46:47.379Z,2274.00
2023-04-22T06:47:47.477Z,2278.00
2023-04-22T06:48:47.438Z,2273.00
2023-04-22T06:49:47.468Z,2275.00
2023-04-22T06:50:47.613Z,2278.00
2023-04-22T06:51:47.541Z,2288.00
2023-04-22T06:52:47.540Z,2299.00
2023-04-22T06:53:47.561Z,2288.00
2023-04-22T06:54:47.562Z,2298.00
2023-04-22T06:55:47.557Z,2297.00
2023-04-22T06:56:47.572Z,2275.00
2023-04-22T06:57:47.600Z,2261.00
2023-04-22T06:58:47.607Z,2242.00
2023-04-22T06:59:47.649Z,2239.00
2023-04-22T07:00:47.677Z,2294.00
2023-04-22T07:01:47.736Z,2316.00
2023-04-22T07:02:47.775Z,2329.00
2023-04-22T07:03:47.829Z,2321.00
2023-04-22T07:04:47.796Z,2361.00
2023-04-22T07:05:47.840Z,2334.00
2023-04-22T07:06:47.908Z,2340.00
2023-04-22T07:07:47.951Z,2342.00
2023-04-22T07:08:48.012Z,2329.00
2023-04-22T07:09:48.051Z,2340.00
2023-04-22T07:10:48.065Z,2340.00
2023-04-22T07:11:48.096Z,2314.00
2023-04-22T07:12:48.149Z,2294.00
2023-04-22T07:13:48.152Z,2282.00
2023-04-22T07:14:48.229Z,2254.00
2023-04-22T07:15:48.273Z,2216.00
2023-04-22T07:16:48.421Z,2211.00
2023-04-22T07:17:48.397Z,2202.00
2023-04-22T07:18:48.382Z,2172.00
2023-04-22T07:19:48.412Z,2135.00
2023-04-22T07:20:48.448Z,2106.00
2023-04-22T07:21:48.437Z,2117.00
2023-04-22T07:22:48.472Z,2074.00
2023-04-22T07:23:48.467Z,2030.00
2023-04-22T07:24:48.473Z,1994.00
2023-04-22T07:25:48.465Z,1965.00
2023-04-22T07:26:48.496Z,1950.00
2023-04-22T07:27:48.540Z,1921.00
2023-04-22T07:28:48.577Z,1857.00
2023-04-22T07:29:48.639Z,1860.00
2023-04-22T07:30:48.661Z,1829.00
2023-04-22T07:31:48.876Z,1818.00
2023-04-22T07:32:49.051Z,1751.00
2023-04-22T07:33:48.782Z,1733.00
2023-04-22T07:34:48.802Z,1718.00
2023-04-22T07:35:48.862Z,1717.00
2023-04-22T07:36:48.897Z,1668.00
2023-04-22T07:37:49.021Z,1608.00
2023-04-22T07:38:48.958Z,1522.00
2023-04-22T07:39:48.984Z,1502.00
2023-04-22T07:40:49.038Z,1540.00
2023-04-22T07:41:49.080Z,1557.00
2023-04-22T07:42:49.117Z,1527.00
2023-04-22T07:43:49.108Z,1512.00
2023-04-22T07:44:49.148Z,1515.00
2023-04-22T07:45:49.189Z,1460.00
2023-04-22T07:46:49.162Z,1401.00
2023-04-22T07:47:49.238Z,1306.00
2023-04-22T07:48:49.273Z,1281.00
2023-04-22T07:49:49.280Z,1227.00
2023-04-22T07:50:49.322Z,1197.00
2023-04-22T07:51:49.361Z,1290.00
2023-04-22T07:52:49.394Z,1201.00
2023-04-22T07:53:49.436Z,1172.00
2023-04-22T07:54:49.454Z,1132.00
2023-04-22T07:55:49.494Z,1126.00
2023-04-22T07:56:49.546Z,1176.00
2023-04-22T07:57:49.601Z,1177.00
2023-04-22T07:58:49.627Z,1134.00
2023-04-22T07:59:49.651Z,1112.00
2023-04-22T08:00:49.704Z,1090.00
2023-04-22T08:01:49.709Z,1089.00
2023-04-22T08:02:49.843Z,1100.00
2023-04-22T08:03:49.941Z,1063.00
2023-04-22T08:04:49.902Z,1087.00
2023-04-22T08:05:49.875Z,1079.00
2023-04-22T08:06:49.900Z,1082.00
2023-04-22T08:07:49.958Z,1080.00
2023-04-22T08:08:49.981Z,1086.00
2023-04-22T08:09:50.008Z,1047.00
2023-04-22T08:10:50.067Z,1063.00
2023-04-22T08:11:50.099Z,1051.00
2023-04-22T08:12:50.132Z,1028.00
2023-04-22T08:13:50.197Z,1038.00
2023-04-22T08:14:50.257Z,1022.00
2023-04-22T08:15:50.366Z,1027.00
2023-04-22T08:16:50.371Z,988.00
2023-04-22T08:17:50.512Z,974.00
2023-04-22T08:18:50.495Z,940.00
2023-04-22T08:19:50.587Z,941.00
2023-04-22T08:20:50.649Z,885.00
2023-04-22T08:21:50.707Z,933.00
2023-04-22T08:22:50.749Z,905.00
2023-04-22T08:23:50.825Z,897.00
2023-04-22T08:24:50.879Z,850.00
2023-04-22T08:25:50.895Z,869.00
2023-04-22T08:26:51.038Z,804.00
2023-04-22T08:27:51.008Z,772.00
2023-04-22T08:28:51.050Z,810.00
2023-04-22T08:29:51.115Z,817.00
2023-04-22T08:30:51.126Z,783.00
2023-04-22T08:31:51.145Z,752.00
2023-04-22T08:32:51.228Z,711.00
2023-04-22T08:33:51.225Z,739.00
2023-04-22T08:34:52.014Z,735.00
2023-04-22T08:35:51.266Z,672.00
2023-04-22T08:36:51.270Z,651.00
2023-04-22T08:37:51.254Z,663.00
2023-04-22T08:38:51.240Z,641.00
2023-04-22T08:39:51.239Z,638.00
2023-04-22T08:40:51.245Z,644.00
2023-04-22T08:41:51.378Z,658.00
2023-04-22T08:42:51.226Z,628.00
2023-04-22T08:43:51.235Z,662.00
2023-04-22T08:44:51.213Z,659.00
2023-04-22T08:45:51.214Z,650.00
2023-04-22T08:46:51.229Z,657.00
2023-04-22T08:47:51.278Z,659.00
2023-04-22T08:48:51.220Z,683.00
2023-04-22T08:49:51.188Z,656.00
2023-04-22T08:50:51.167Z,643.00
2023-04-22T08:51:51.170Z,641.00
2023-04-22T08:52:51.198Z,622.00
2023-04-22T08:53:51.156Z,629.00
2023-04-22T08:54:51.142Z,648.00
2023-04-22T08:55:51.135Z,657.00
2023-04-22T08:56:51.138Z,652.00
2023-04-22T08:57:51.140Z,674.00
2023-04-22T08:58:51.150Z,662.00
2023-04-22T08:59:51.340Z,646.00
2023-04-22T09:00:51.281Z,645.00
2023-04-22T09:01:51.131Z,653.00
2023-04-22T09:02:51.109Z,656.00
2023-04-22T09:03:51.163Z,662.00
2023-04-22T09:04:51.112Z,685.00
2023-04-22T09:05:51.079Z,685.00
2023-04-22T09:06:51.090Z,674.00
2023-04-22T09:07:51.066Z,672.00
2023-04-22T09:08:51.051Z,717.00
2023-04-22T09:09:51.076Z,715.00
2023-04-22T09:10:51.057Z,705.00
2023-04-22T09:11:51.055Z,700.00
2023-04-22T09:12:51.027Z,732.00
2023-04-22T09:13:51.028Z,725.00
2023-04-22T09:14:51.029Z,678.00
2023-04-22T09:15:51.020Z,695.00
2023-04-22T09:16:51.170Z,700.00
2023-04-22T09:17:51.099Z,725.00
2023-04-22T09:18:51.010Z,706.00
2023-04-22T09:19:51.055Z,721.00
2023-04-22T09:20:51.014Z,725.00
2023-04-22T09:21:53.675Z,713.00
2023-04-22T09:22:50.966Z,698.00
2023-04-22T09:23:51.012Z,705.00
2023-04-22T09:24:50.958Z,690.00
2023-04-22T09:25:50.974Z,666.00
2023-04-22T09:26:50.967Z,661.00
2023-04-22T09:27:50.952Z,675.00
2023-04-22T09:28:50.964Z,676.00
2023-04-22T09:29:50.940Z,663.00
2023-04-22T09:30:51.025Z,672.00
2023-04-22T09:31:50.989Z,666.00
2023-04-22T09:32:50.937Z,664.00
2023-04-22T09:33:50.898Z,651.00
2023-04-22T09:34:50.906Z,657.00
2023-04-22T09:35:50.916Z,634.00
2023-04-22T09:36:50.889Z,636.00
2023-04-22T09:37:50.906Z,643.00
2023-04-22T09:38:50.883Z,646.00
2023-04-22T09:39:50.882Z,638.00
2023-04-22T09:40:50.886Z,639.00
2023-04-22T09:41:50.893Z,632.00
2023-04-22T09:42:50.857Z,641.00
2023-04-22T09:43:50.858Z,639.00
2023-04-22T09:44:50.850Z,631.00
2023-04-22T09:45:50.874Z,632.00
2023-04-22T09:46:50.863Z,640.00
2023-04-22T09:47:50.843Z,647.00
2023-04-22T09:48:50.812Z,634.00
2023-04-22T09:49:50.825Z,632.00
2023-04-22T09:50:50.807Z,626.00
2023-04-22T09:51:50.810Z,646.00
2023-04-22T09:52:50.772Z,640.00
2023-04-22T09:53:50.781Z,643.00
2023-04-22T09:54:50.762Z,655.00
2023-04-22T09:55:50.780Z,635.00
2023-04-22T09:56:50.765Z,644.00
2023-04-22T09:57:50.772Z,628.00
2023-04-22T09:58:50.757Z,643.00
2023-04-22T09:59:50.775Z,650.00
2023-04-22T10:00:50.766Z,635.00
2023-04-22T10:01:50.731Z,647.00
2023-04-22T10:02:50.852Z,646.00
2023-04-22T10:03:50.720Z,632.00
2023-04-22T10:04:50.732Z,641.00
2023-04-22T10:05:50.733Z,645.00
2023-04-22T10:06:50.690Z,634.00
2023-04-22T10:07:50.724Z,635.00
2023-04-22T10:08:50.684Z,591.00
2023-04-22T10:09:50.694Z,605.00
2023-04-22T10:10:50.700Z,621.00
2023-04-22T10:11:50.666Z,635.00
2023-04-22T10:12:50.676Z,613.00
2023-04-22T10:13:50.647Z,601.00
2023-04-22T10:14:50.631Z,606.00
2023-04-22T10:15:50.667Z,604.00
2023-04-22T10:16:50.665Z,619.00
2023-04-22T10:17:50.734Z,617.00
2023-04-22T10:18:50.630Z,597.00
2023-04-22T10:19:50.614Z,596.00
2023-04-22T10:20:50.631Z,604.00
2023-04-22T10:21:50.606Z,603.00
2023-04-22T10:22:50.580Z,603.00
2023-04-22T10:23:50.569Z,613.00
2023-04-22T10:24:50.593Z,580.00
2023-04-22T10:25:50.553Z,588.00
2023-04-22T10:26:50.567Z,595.00
2023-04-22T10:27:50.562Z,615.00
2023-04-22T10:28:50.558Z,610.00
2023-04-22T10:29:50.543Z,572.00
2023-04-22T10:30:50.622Z,583.00
2023-04-22T10:31:50.531Z,601.00
2023-04-22T10:32:50.557Z,571.00
2023-04-22T10:33:50.504Z,572.00
2023-04-22T10:34:50.492Z,566.00
2023-04-22T10:35:50.531Z,555.00
2023-04-22T10:36:50.492Z,554.00
2023-04-22T10:37:50.493Z,528.00
2023-04-22T10:38:50.539Z,509.00
2023-04-22T10:39:50.473Z,555.00
2023-04-22T10:40:50.456Z,500.00
2023-04-22T10:41:50.459Z,484.00
2023-04-22T10:42:50.463Z,505.00
2023-04-22T10:43:50.447Z,602.00
2023-04-22T10:44:50.447Z,571.00
2023-04-22T10:45:50.476Z,527.00
2023-04-22T10:46:50.443Z,529.00
2023-04-22T10:47:50.543Z,530.00
2023-04-22T10:48:50.525Z,550.00
2023-04-22T10:49:50.618Z,552.00
2023-04-22T10:50:50.642Z,618.00
2023-04-22T10:51:50.990Z,570.00
2023-04-22T10:52:50.699Z,537.00
2023-04-22T10:53:50.689Z,588.00
2023-04-22T10:54:50.729Z,526.00
2023-04-22T10:55:50.761Z,624.00
2023-04-22T10:56:57.578Z,607.00
2023-04-22T10:57:51.806Z,563.00
2023-04-22T10:58:50.807Z,589.00
2023-04-22T10:59:50.796Z,543.00
2023-04-22T11:00:53.846Z,560.00
2023-04-22T11:01:50.825Z,547.00
2023-04-22T11:02:50.880Z,553.00
2023-04-22T11:03:50.850Z,533.00
2023-04-22T11:04:50.757Z,579.00
2023-04-22T11:05:50.765Z,567.00
2023-04-22T11:06:50.749Z,532.00
2023-04-22T11:07:50.746Z,551.00
2023-04-22T11:08:50.722Z,556.00
2023-04-22T11:09:50.774Z,569.00
2023-04-22T11:10:50.711Z,580.00
2023-04-22T11:11:50.709Z,593.00
2023-04-22T11:12:50.707Z,578.00
2023-04-22T11:13:51.077Z,574.00
2023-04-22T11:14:50.677Z,601.00
2023-04-22T11:15:50.808Z,601.00
2023-04-22T11:16:50.822Z,603.00
2023-04-22T11:17:50.704Z,633.00
2023-04-22T11:18:50.679Z,578.00
2023-04-22T11:19:50.673Z,620.00
2023-04-22T11:20:50.691Z,615.00
2023-04-22T11:21:51.327Z,641.00
2023-04-22T11:22:50.637Z,602.00
2023-04-22T11:23:50.653Z,614.00
2023-04-22T11:24:50.629Z,644.00
2023-04-22T11:25:50.618Z,665.00
2023-04-22T11:26:50.625Z,734.00
2023-04-22T11:27:50.596Z,723.00
2023-04-22T11:28:50.594Z,760.00
2023-04-22T11:29:50.652Z,736.00
2023-04-22T11:30:50.595Z,688.00
2023-04-22T11:31:50.636Z,712.00
2023-04-22T11:32:50.666Z,760.00
2023-04-22T11:33:50.914Z,736.00
2023-04-22T11:34:50.588Z,797.00
2023-04-22T11:35:50.701Z,797.00
2023-04-22T11:36:50.554Z,825.00
2023-04-22T11:37:50.534Z,805.00
2023-04-22T11:38:50.545Z,748.00
2023-04-22T11:40:51.527Z,762.00
2023-04-22T11:41:50.525Z,770.00
2023-04-22T11:42:50.517Z,767.00
2023-04-22T11:43:50.535Z,786.00
2023-04-22T11:44:50.514Z,769.00
2023-04-22T11:45:50.534Z,723.00
2023-04-22T11:46:50.494Z,789.00
2023-04-22T11:47:50.512Z,719.00
2023-04-22T11:48:50.463Z,722.00
2023-04-22T11:49:50.458Z,768.00
2023-04-22T11:50:50.451Z,824.00
2023-04-22T11:51:50.480Z,804.00
2023-04-22T11:52:50.454Z,698.00
2023-04-22T11:53:50.435Z,722.00
2023-04-22T11:54:50.441Z,735.00
2023-04-22T11:55:50.434Z,691.00
2023-04-22T11:56:50.452Z,714.00
2023-04-22T11:57:50.479Z,728.00
2023-04-22T11:58:50.505Z,763.00
2023-04-22T11:59:50.564Z,694.00
2023-04-22T12:00:50.610Z,669.00
2023-04-22T12:01:50.650Z,664.00
2023-04-22T12:02:50.735Z,663.00
2023-04-22T12:03:50.834Z,693.00
2023-04-22T12:04:50.782Z,671.00
2023-04-22T12:05:50.772Z,663.00
2023-04-22T12:06:50.832Z,642.00
2023-04-22T12:07:50.863Z,646.00
2023-04-22T12:08:50.872Z,632.00
2023-04-22T12:09:50.939Z,625.00
2023-04-22T12:10:51.007Z,627.00
2023-04-22T12:11:51.009Z,627.00
2023-04-22T12:12:51.025Z,638.00
2023-04-22T12:13:51.088Z,631.00
2023-04-22T12:14:51.131Z,640.00